Aérodrome :
LOGIN :

S'inscrire | Disclaimer

   EN    FR    IT 

 










Légende :    VFR   VFR Marginal   IFR   IFR Intensif   IFR Très Intensif
Visi : 
Plafond : 
>= 8 km
>= 3000ft
5 à 8 km
1000 à 3000 ft
1500m à 5 km
500 à 1000 ft
800 à 1500m
200 à 500 ft
< 800m
< 200 ft
Symboles :   Orages  Brouillard  Fortes neiges  Fortes précipitations  Vent > 20 kt
SIGMETs :   Divers  Orages  Givrage  Turbulence  Onde Orograph.  Cendres Volcan.






- Altitude de l'aérodrome : 236 ft
- Code IATA : MMX


ESMS - Malmö Sturup

DERNIER METAR :
  • 141650Z 15009KT CAVOK 18/12 Q1012

METARs EXPIRÉS :
  • 141620Z 14008KT CAVOK 18/13 Q1012
  • 141550Z 15007KT CAVOK 19/13 Q1012
  • 141520Z 15008KT CAVOK 19/12 Q1012
  • 141450Z 14009KT CAVOK 20/12 Q1012
  • 141420Z 15009KT CAVOK 20/13 Q1013

TAF TAF ESMS
Valide du 14 à 12h jusqu'au 15 à 12h UTC


141108Z 1412/1512 17010KT 9999 SCT040
TEMPO 1500/1512 2500 RA BR BKN005



MET'MAP, la Météo Aéronautique d'un coup d'oeil ! - Copyright ORBIFLY Décembre 2007 - Disclaimer

ORBIFLY MET'MAP TEAM :

Programmation & Développement : Alexandra Zaïnal
Sur une idée originale de : Baudouin d'Aumeries
Assistance à la programmation : Marc-Olivier Méhu
Soutien technique & logistique : Manuel Goepfert

Contact : metmap@orbifly.com




SOURCES & CREDITS :

   NOAA